Time;durP1;ratioP1;P1;durP2;ratioP2;P2;SDS_P1;SDS_P2;PMS_P1;PMS_P2;Temp;Humidity;BMP_temperature;BMP_pressure;BME280_temperature;BME280_humidity;BME280_pressure;Samples;Min_cycle;Max_cycle;Signal;HPM_P1;HPM_P2
2023/04/17 00:02:15;;;;;;;41.03;28.60;;;;;;;;;;5031286;28;20425;-43
2023/04/17 00:04:41;;;;;;;44.77;27.30;;;;;;;;;;5028040;28;20407;-43
2023/04/17 00:07:08;;;;;;;44.47;26.10;;;;;;;;;;5026435;28;20415;-43
2023/04/17 00:09:34;;;;;;;41.63;26.47;;;;;;;;;;5031495;28;20421;-44
2023/04/17 00:12:00;;;;;;;48.77;25.90;;;;;;;;;;5030719;28;20513;-44
2023/04/17 00:14:26;;;;;;;41.33;25.70;;;;;;;;;;5030793;28;20434;-44
2023/04/17 00:16:52;;;;;;;45.70;27.47;;;;;;;;;;5031446;28;20868;-44
2023/04/17 00:19:18;;;;;;;36.60;25.20;;;;;;;;;;5031354;28;20756;-44
2023/04/17 00:21:44;;;;;;;40.47;26.80;;;;;;;;;;5030732;28;20778;-44
2023/04/17 00:24:11;;;;;;;51.47;26.57;;;;;;;;;;5031247;28;20424;-46
2023/04/17 00:26:37;;;;;;;39.63;26.53;;;;;;;;;;5031420;28;20914;-44
2023/04/17 00:29:03;;;;;;;43.20;27.93;;;;;;;;;;5029534;28;20421;-43
2023/04/17 00:31:29;;;;;;;43.00;25.20;;;;;;;;;;5030667;28;20793;-44
2023/04/17 00:33:57;;;;;;;45.57;27.17;;;;;;;;;;5026174;28;20514;-45
2023/04/17 00:36:23;;;;;;;40.90;25.70;;;;;;;;;;5032951;28;20427;-44
2023/04/17 00:38:49;;;;;;;35.23;24.27;;;;;;;;;;5027592;28;20460;-44
2023/04/17 00:41:15;;;;;;;38.90;24.93;;;;;;;;;;5030866;28;20494;-45
2023/04/17 00:43:41;;;;;;;40.87;24.67;;;;;;;;;;5029105;28;20434;-44
2023/04/17 00:46:07;;;;;;;41.77;26.30;;;;;;;;;;5031046;28;20422;-46
2023/04/17 00:48:34;;;;;;;35.27;25.70;;;;;;;;;;5031555;28;20414;-45
2023/04/17 00:51:02;;;;;;;37.07;23.43;;;;;;;;;;5027130;28;20426;-44
2023/04/17 00:53:29;;;;;;;36.70;25.10;;;;;;;;;;5034215;28;20437;-45
2023/04/17 00:55:55;;;;;;;37.87;24.47;;;;;;;;;;5034919;28;20411;-44
2023/04/17 00:58:21;;;;;;;39.03;25.90;;;;;;;;;;5034978;28;20453;-43
2023/04/17 01:00:48;;;;;;;32.30;23.57;;;;;;;;;;5034368;28;20777;-44
2023/04/17 01:03:15;;;;;;;35.73;23.17;;;;;;;;;;5028440;28;20434;-44
2023/04/17 01:05:42;;;;;;;44.80;25.47;;;;;;;;;;5031641;28;20426;-44
2023/04/17 01:08:08;;;;;;;40.63;24.87;;;;;;;;;;5037189;28;20426;-44
2023/04/17 01:10:34;;;;;;;43.93;23.20;;;;;;;;;;5033060;28;20437;-46
2023/04/17 01:13:01;;;;;;;38.40;24.57;;;;;;;;;;5030442;28;20445;-45
2023/04/17 01:15:27;;;;;;;33.50;23.80;;;;;;;;;;5034535;28;20818;-45
2023/04/17 01:17:53;;;;;;;36.93;26.03;;;;;;;;;;5034525;28;20858;-44
2023/04/17 01:20:19;;;;;;;38.70;25.27;;;;;;;;;;5032791;28;20410;-43
2023/04/17 01:22:51;;;;;;;36.67;26.13;;;;;;;;;;5033812;28;20426;-44
2023/04/17 01:25:20;;;;;;;41.40;25.20;;;;;;;;;;5032781;28;20406;-44
2023/04/17 01:27:46;;;;;;;35.77;23.80;;;;;;;;;;5031056;28;20415;-44
2023/04/17 01:30:12;;;;;;;35.10;24.57;;;;;;;;;;5034178;28;20422;-44
2023/04/17 01:32:38;;;;;;;36.97;23.30;;;;;;;;;;5033524;28;20878;-44
2023/04/17 01:35:04;;;;;;;37.63;24.60;;;;;;;;;;5032757;28;20469;-45
2023/04/17 01:37:30;;;;;;;40.03;26.60;;;;;;;;;;5041549;28;20462;-44
2023/04/17 01:39:57;;;;;;;38.40;25.10;;;;;;;;;;5034100;28;20418;-45
2023/04/17 01:42:23;;;;;;;36.53;26.10;;;;;;;;;;5033237;28;20796;-44
2023/04/17 01:44:49;;;;;;;36.73;25.30;;;;;;;;;;5029155;28;20407;-46
2023/04/17 01:47:15;;;;;;;37.93;25.50;;;;;;;;;;5033868;28;20417;-44
2023/04/17 01:49:41;;;;;;;37.97;25.40;;;;;;;;;;5027707;28;20418;-44
2023/04/17 01:52:08;;;;;;;42.67;26.80;;;;;;;;;;5030057;28;20992;-44
2023/04/17 01:54:34;;;;;;;39.93;26.40;;;;;;;;;;5033899;28;20410;-44
2023/04/17 01:57:01;;;;;;;43.17;26.57;;;;;;;;;;5033719;28;20552;-45
2023/04/17 01:59:27;;;;;;;38.20;27.00;;;;;;;;;;5034125;28;20407;-44
2023/04/17 02:01:53;;;;;;;42.80;24.80;;;;;;;;;;5033117;28;20431;-45
2023/04/17 02:04:19;;;;;;;43.50;26.90;;;;;;;;;;5033592;28;20909;-44
2023/04/17 02:06:45;;;;;;;37.83;25.17;;;;;;;;;;5033062;28;20466;-44
2023/04/17 02:09:11;;;;;;;47.60;28.30;;;;;;;;;;5034519;28;20431;-45
2023/04/17 02:11:37;;;;;;;39.47;26.90;;;;;;;;;;5030291;28;20785;-45
2023/04/17 02:14:03;;;;;;;39.63;25.27;;;;;;;;;;5031126;28;20506;-45
2023/04/17 02:16:30;;;;;;;38.37;25.80;;;;;;;;;;5032416;28;20421;-44
2023/04/17 02:18:56;;;;;;;37.87;26.50;;;;;;;;;;5032338;28;20818;-44
2023/04/17 02:21:22;;;;;;;45.90;28.00;;;;;;;;;;5030800;28;20868;-45
2023/04/17 02:23:48;;;;;;;38.93;25.90;;;;;;;;;;5036527;28;20433;-45
2023/04/17 02:26:14;;;;;;;37.93;25.00;;;;;;;;;;5027478;28;20794;-45
2023/04/17 02:28:43;;;;;;;42.10;25.93;;;;;;;;;;5032123;28;20440;-45
2023/04/17 02:31:09;;;;;;;39.93;25.33;;;;;;;;;;5030435;28;20451;-45
2023/04/17 02:33:35;;;;;;;40.57;25.90;;;;;;;;;;5025427;28;20504;-45
2023/04/17 02:36:02;;;;;;;38.00;27.10;;;;;;;;;;5032084;28;20468;-44
2023/04/17 02:38:31;;;;;;;40.50;25.90;;;;;;;;;;5032025;28;20497;-44
2023/04/17 02:40:57;;;;;;;37.10;26.30;;;;;;;;;;5027240;28;20410;-44
2023/04/17 02:43:24;;;;;;;42.93;27.63;;;;;;;;;;5031539;28;20453;-44
2023/04/17 02:45:50;;;;;;;40.70;25.60;;;;;;;;;;5024762;28;20403;-45
2023/04/17 02:48:17;;;;;;;38.90;26.40;;;;;;;;;;5030097;28;20436;-45
2023/04/17 02:50:43;;;;;;;39.03;25.00;;;;;;;;;;5029310;28;20932;-44
2023/04/17 02:53:09;;;;;;;38.00;25.23;;;;;;;;;;5030989;28;21010;-44
2023/04/17 02:55:35;;;;;;;39.30;26.27;;;;;;;;;;5031711;28;20886;-44
2023/04/17 02:58:01;;;;;;;40.43;24.97;;;;;;;;;;5032012;28;20460;-44
2023/04/17 03:00:27;;;;;;;39.50;24.20;;;;;;;;;;5024818;28;20895;-44
2023/04/17 03:02:53;;;;;;;40.00;25.33;;;;;;;;;;5030974;28;20434;-44
2023/04/17 03:05:22;;;;;;;36.70;25.77;;;;;;;;;;5025421;28;20787;-44
2023/04/17 03:07:48;;;;;;;36.30;24.60;;;;;;;;;;5035800;28;20435;-44
2023/04/17 03:10:14;;;;;;;37.33;24.83;;;;;;;;;;5031482;28;20822;-43
2023/04/17 03:12:41;;;;;;;37.90;24.83;;;;;;;;;;5030251;28;20441;-44
2023/04/17 03:15:07;;;;;;;38.23;23.97;;;;;;;;;;4994794;28;1060889;-44
2023/04/17 03:17:33;;;;;;;42.57;25.93;;;;;;;;;;5032504;28;20194;-44
2023/04/17 03:19:59;;;;;;;36.20;24.30;;;;;;;;;;5032285;28;20914;-44
2023/04/17 03:22:25;;;;;;;41.77;24.23;;;;;;;;;;5031493;28;20916;-44
2023/04/17 03:24:51;;;;;;;37.47;23.90;;;;;;;;;;5032498;28;20412;-44
2023/04/17 03:27:23;;;;;;;34.43;23.40;;;;;;;;;;5032078;28;20444;-45
2023/04/17 03:29:49;;;;;;;38.57;25.67;;;;;;;;;;5032055;28;21003;-45
2023/04/17 03:32:15;;;;;;;38.47;23.07;;;;;;;;;;5032092;28;20433;-46
2023/04/17 03:34:41;;;;;;;40.20;25.67;;;;;;;;;;5032901;28;20456;-45
2023/04/17 03:37:07;;;;;;;39.77;25.90;;;;;;;;;;5032686;28;20452;-45
2023/04/17 03:39:33;;;;;;;41.63;25.63;;;;;;;;;;5033449;28;20425;-47
2023/04/17 03:41:59;;;;;;;37.77;23.80;;;;;;;;;;5034990;28;20452;-47
2023/04/17 03:44:25;;;;;;;40.53;25.87;;;;;;;;;;5032663;28;20406;-45
2023/04/17 03:46:51;;;;;;;40.20;26.37;;;;;;;;;;5032750;28;20492;-47
2023/04/17 03:49:17;;;;;;;36.67;25.57;;;;;;;;;;5032972;28;20426;-46
2023/04/17 03:51:43;;;;;;;39.80;26.10;;;;;;;;;;5031655;28;20402;-45
2023/04/17 03:54:09;;;;;;;41.00;25.53;;;;;;;;;;5032393;28;20531;-45
2023/04/17 03:56:35;;;;;;;41.90;27.40;;;;;;;;;;5032524;28;20406;-46
2023/04/17 03:59:03;;;;;;;43.90;28.70;;;;;;;;;;5032490;28;20411;-45
2023/04/17 04:01:29;;;;;;;64.97;34.30;;;;;;;;;;5030531;28;20474;-46
2023/04/17 04:03:55;;;;;;;52.23;36.00;;;;;;;;;;5032523;28;20428;-45
2023/04/17 04:06:21;;;;;;;53.73;32.53;;;;;;;;;;5032243;28;20452;-47
2023/04/17 04:08:47;;;;;;;52.97;31.60;;;;;;;;;;5033198;28;20421;-46
2023/04/17 04:11:13;;;;;;;46.80;28.70;;;;;;;;;;5032132;28;20480;-45
2023/04/17 04:13:39;;;;;;;56.33;33.47;;;;;;;;;;5032149;28;20433;-46
2023/04/17 04:16:05;;;;;;;60.87;35.23;;;;;;;;;;5030824;28;20429;-45
2023/04/17 04:18:31;;;;;;;57.33;33.90;;;;;;;;;;5032571;28;20465;-46
2023/04/17 04:20:57;;;;;;;59.70;35.40;;;;;;;;;;5032142;28;20413;-45
2023/04/17 04:23:23;;;;;;;60.00;35.93;;;;;;;;;;5031824;28;20433;-46
2023/04/17 04:25:49;;;;;;;53.40;32.20;;;;;;;;;;5034657;28;20407;-45
2023/04/17 04:28:22;;;;;;;54.37;33.90;;;;;;;;;;5033793;28;20441;-47
2023/04/17 04:30:49;;;;;;;51.00;30.53;;;;;;;;;;5036321;28;20784;-45
2023/04/17 04:33:15;;;;;;;56.20;32.33;;;;;;;;;;5035488;28;20433;-45
2023/04/17 04:35:41;;;;;;;45.80;27.77;;;;;;;;;;5036086;28;20414;-45
2023/04/17 04:38:07;;;;;;;49.17;29.50;;;;;;;;;;5041256;28;20492;-45
2023/04/17 04:40:37;;;;;;;45.20;26.53;;;;;;;;;;5028289;28;20904;-46
2023/04/17 04:43:03;;;;;;;45.93;27.33;;;;;;;;;;5033877;28;20467;-45
2023/04/17 04:45:29;;;;;;;46.10;28.10;;;;;;;;;;5032932;28;20402;-45
2023/04/17 04:47:55;;;;;;;46.70;28.00;;;;;;;;;;5036849;28;20413;-46
2023/04/17 04:50:21;;;;;;;44.13;27.90;;;;;;;;;;5036304;28;20881;-44
2023/04/17 04:52:47;;;;;;;43.30;27.77;;;;;;;;;;5034326;28;20513;-45
2023/04/17 04:55:13;;;;;;;43.90;28.20;;;;;;;;;;5033690;28;20417;-44
2023/04/17 04:57:39;;;;;;;43.13;28.77;;;;;;;;;;5034859;28;21140;-44
2023/04/17 05:00:07;;;;;;;39.50;25.73;;;;;;;;;;5034878;28;20964;-44
2023/04/17 05:02:33;;;;;;;45.73;29.20;;;;;;;;;;5034020;28;20515;-44
2023/04/17 05:04:59;;;;;;;46.13;28.07;;;;;;;;;;5034618;28;20460;-44
2023/04/17 05:07:26;;;;;;;46.40;28.80;;;;;;;;;;5034054;28;20406;-45
2023/04/17 05:09:52;;;;;;;48.60;29.50;;;;;;;;;;5036267;28;20433;-44
2023/04/17 05:12:17;;;;;;;44.00;27.50;;;;;;;;;;5034040;28;20456;-45
2023/04/17 05:14:44;;;;;;;40.40;27.97;;;;;;;;;;5034261;28;20432;-44
2023/04/17 05:17:10;;;;;;;42.57;26.13;;;;;;;;;;5034415;28;20994;-45
2023/04/17 05:19:36;;;;;;;40.90;27.77;;;;;;;;;;5034496;28;20505;-44
2023/04/17 05:22:01;;;;;;;40.63;27.33;;;;;;;;;;5032429;28;20422;-44
2023/04/17 05:24:28;;;;;;;39.60;27.90;;;;;;;;;;5034540;28;20402;-45
2023/04/17 05:26:54;;;;;;;40.13;25.00;;;;;;;;;;5034422;28;20414;-44
2023/04/17 05:29:20;;;;;;;40.23;26.17;;;;;;;;;;5030702;28;20414;-44
2023/04/17 05:31:45;;;;;;;41.53;25.53;;;;;;;;;;5033390;28;20433;-45
2023/04/17 05:34:11;;;;;;;46.27;27.63;;;;;;;;;;5034507;28;20910;-44
2023/04/17 05:36:39;;;;;;;39.67;24.53;;;;;;;;;;5032642;28;20418;-44
2023/04/17 05:39:05;;;;;;;40.43;25.33;;;;;;;;;;5032699;28;20435;-44
2023/04/17 05:41:31;;;;;;;37.20;24.77;;;;;;;;;;5044733;28;20491;-45
2023/04/17 05:43:57;;;;;;;41.27;24.70;;;;;;;;;;5034538;28;20472;-45
2023/04/17 05:46:23;;;;;;;35.77;25.47;;;;;;;;;;5034033;28;20523;-44
2023/04/17 05:48:49;;;;;;;38.60;24.80;;;;;;;;;;5034279;28;20414;-44
2023/04/17 05:51:15;;;;;;;44.67;25.67;;;;;;;;;;5032465;28;20468;-46
2023/04/17 05:53:43;;;;;;;35.63;23.87;;;;;;;;;;5033564;28;20430;-44
2023/04/17 05:56:09;;;;;;;39.20;24.30;;;;;;;;;;5029556;28;20466;-44
2023/04/17 05:58:35;;;;;;;37.03;23.23;;;;;;;;;;5033695;28;20953;-43
2023/04/17 06:01:04;;;;;;;45.80;27.57;;;;;;;;;;5033541;28;20405;-44
2023/04/17 06:03:30;;;;;;;32.20;22.30;;;;;;;;;;5033091;28;20797;-44
2023/04/17 06:05:57;;;;;;;36.63;23.77;;;;;;;;;;5032588;28;20414;-44
2023/04/17 06:08:23;;;;;;;34.70;24.40;;;;;;;;;;5033713;28;20762;-44
2023/04/17 06:10:50;;;;;;;40.73;28.27;;;;;;;;;;5032707;28;20433;-44
2023/04/17 06:13:17;;;;;;;36.47;23.80;;;;;;;;;;5039195;28;20448;-45
2023/04/17 06:15:43;;;;;;;38.63;23.83;;;;;;;;;;5033301;28;20787;-44
2023/04/17 06:18:09;;;;;;;34.87;23.30;;;;;;;;;;5032607;28;20463;-44
2023/04/17 06:20:35;;;;;;;34.63;23.03;;;;;;;;;;5033471;28;20399;-43
2023/04/17 06:23:01;;;;;;;33.13;22.93;;;;;;;;;;5030190;28;20433;-44
2023/04/17 06:25:27;;;;;;;35.63;24.23;;;;;;;;;;5028608;28;20406;-44
2023/04/17 06:27:53;;;;;;;36.20;22.70;;;;;;;;;;5032693;28;20470;-44
2023/04/17 06:30:19;;;;;;;34.37;22.97;;;;;;;;;;5032752;28;20480;-44
2023/04/17 06:32:44;;;;;;;36.53;23.03;;;;;;;;;;5031407;28;20441;-44
2023/04/17 06:35:10;;;;;;;37.07;25.10;;;;;;;;;;5032645;28;20418;-44
2023/04/17 06:37:36;;;;;;;38.90;24.00;;;;;;;;;;5032394;28;20457;-44
2023/04/17 06:40:02;;;;;;;31.37;22.47;;;;;;;;;;5036230;28;20425;-45
2023/04/17 06:42:29;;;;;;;37.50;23.70;;;;;;;;;;5031642;28;20949;-44
2023/04/17 06:44:55;;;;;;;36.97;24.43;;;;;;;;;;5032364;28;20464;-44
2023/04/17 06:47:21;;;;;;;32.87;22.93;;;;;;;;;;5031288;28;20422;-43
2023/04/17 06:49:47;;;;;;;28.53;21.13;;;;;;;;;;5032614;28;20800;-44
2023/04/17 06:52:12;;;;;;;31.97;21.20;;;;;;;;;;5031977;28;20438;-43
2023/04/17 06:54:38;;;;;;;37.07;23.00;;;;;;;;;;5032757;28;20410;-44
2023/04/17 06:57:08;;;;;;;37.60;23.17;;;;;;;;;;5031946;28;20446;-44
2023/04/17 06:59:34;;;;;;;38.00;24.07;;;;;;;;;;5026643;28;20747;-45
2023/04/17 07:02:01;;;;;;;31.40;21.20;;;;;;;;;;5030096;28;20472;-44
2023/04/17 07:04:31;;;;;;;32.60;22.50;;;;;;;;;;5032461;28;20924;-44
2023/04/17 07:06:57;;;;;;;36.23;21.50;;;;;;;;;;5032412;28;20425;-44
2023/04/17 07:09:26;;;;;;;33.73;22.53;;;;;;;;;;5027241;28;20517;-45
2023/04/17 07:11:53;;;;;;;36.43;24.67;;;;;;;;;;5033655;28;20459;-44
2023/04/17 07:14:19;;;;;;;31.47;21.80;;;;;;;;;;5031541;28;20461;-45
2023/04/17 07:16:45;;;;;;;34.80;20.77;;;;;;;;;;5030719;28;20410;-45
2023/04/17 07:19:11;;;;;;;37.03;23.90;;;;;;;;;;5031203;28;20564;-44
2023/04/17 07:21:37;;;;;;;32.80;23.40;;;;;;;;;;5031886;28;20402;-43
2023/04/17 07:24:03;;;;;;;33.13;22.87;;;;;;;;;;5032166;28;20815;-44
2023/04/17 07:26:29;;;;;;;33.10;23.50;;;;;;;;;;5032692;28;20410;-44
2023/04/17 07:28:55;;;;;;;37.97;24.43;;;;;;;;;;5031833;28;20406;-44
2023/04/17 07:31:21;;;;;;;36.30;24.67;;;;;;;;;;5031121;28;20757;-44
2023/04/17 07:33:48;;;;;;;38.10;25.43;;;;;;;;;;5031767;28;20939;-44
2023/04/17 07:36:14;;;;;;;36.37;26.07;;;;;;;;;;5031535;28;20401;-44
2023/04/17 07:38:41;;;;;;;43.87;28.37;;;;;;;;;;5031564;28;20966;-43
2023/04/17 07:41:06;;;;;;;38.73;26.77;;;;;;;;;;5034619;28;20429;-44
2023/04/17 07:43:32;;;;;;;41.07;25.27;;;;;;;;;;5033612;28;20513;-44
2023/04/17 07:45:59;;;;;;;44.13;29.83;;;;;;;;;;5031691;28;20490;-44
2023/04/17 07:48:26;;;;;;;39.13;27.47;;;;;;;;;;5031784;28;20414;-44
2023/04/17 07:50:52;;;;;;;48.23;30.00;;;;;;;;;;5031790;28;20410;-44
2023/04/17 07:53:18;;;;;;;39.10;28.13;;;;;;;;;;5030493;28;20427;-46
2023/04/17 07:55:45;;;;;;;45.63;29.10;;;;;;;;;;5030480;28;20400;-44
2023/04/17 07:58:11;;;;;;;44.37;28.03;;;;;;;;;;5030394;28;20471;-44
2023/04/17 08:00:38;;;;;;;45.30;27.87;;;;;;;;;;5031630;28;20412;-44
2023/04/17 08:03:04;;;;;;;40.80;26.90;;;;;;;;;;5030885;28;20438;-44
2023/04/17 08:05:30;;;;;;;38.07;25.63;;;;;;;;;;5031659;28;20403;-43
2023/04/17 08:07:56;;;;;;;39.50;25.27;;;;;;;;;;5031535;28;20415;-44
2023/04/17 08:10:22;;;;;;;37.10;24.87;;;;;;;;;;5034411;28;20425;-43
2023/04/17 08:12:48;;;;;;;35.80;24.33;;;;;;;;;;5031524;28;20827;-43
2023/04/17 08:15:14;;;;;;;40.13;26.90;;;;;;;;;;5030856;28;20440;-44
2023/04/17 08:17:40;;;;;;;33.67;22.67;;;;;;;;;;5031395;28;20457;-44
2023/04/17 08:20:07;;;;;;;37.10;23.60;;;;;;;;;;5031577;28;20415;-44
2023/04/17 08:22:37;;;;;;;32.27;23.17;;;;;;;;;;5025787;28;20820;-44
2023/04/17 08:25:08;;;;;;;35.33;24.23;;;;;;;;;;5034213;28;20941;-43
2023/04/17 08:27:34;;;;;;;31.60;22.77;;;;;;;;;;5027547;28;20408;-46
2023/04/17 08:30:00;;;;;;;33.77;23.00;;;;;;;;;;5028787;28;20508;-45
2023/04/17 08:32:26;;;;;;;33.27;23.00;;;;;;;;;;5029665;28;20526;-43
2023/04/17 08:34:52;;;;;;;33.00;23.20;;;;;;;;;;5031051;28;20404;-44
2023/04/17 08:37:18;;;;;;;32.63;24.17;;;;;;;;;;5027562;28;20846;-44
2023/04/17 08:39:44;;;;;;;38.87;22.33;;;;;;;;;;5029366;28;20844;-44
2023/04/17 08:42:10;;;;;;;32.63;22.30;;;;;;;;;;5029946;28;20862;-44
2023/04/17 08:44:36;;;;;;;32.50;24.30;;;;;;;;;;5031100;28;20981;-44
2023/04/17 08:47:03;;;;;;;28.90;22.23;;;;;;;;;;5030005;28;20421;-44
2023/04/17 08:49:32;;;;;;;32.33;21.17;;;;;;;;;;5031320;28;20405;-44
2023/04/17 08:52:01;;;;;;;24.67;19.77;;;;;;;;;;5029514;28;20461;-46
2023/04/17 08:54:27;;;;;;;33.10;22.40;;;;;;;;;;5024448;28;20412;-45
2023/04/17 08:56:53;;;;;;;27.07;19.80;;;;;;;;;;5031295;28;20421;-43
2023/04/17 08:59:19;;;;;;;22.70;18.37;;;;;;;;;;5027438;28;20411;-44
2023/04/17 09:02:04;;;;;;;28.93;18.20;;;;;;;;;;5025226;28;20898;-44
2023/04/17 09:04:36;;;;;;;23.40;17.77;;;;;;;;;;5026070;28;20502;-46
2023/04/17 09:07:03;;;;;;;23.00;16.40;;;;;;;;;;5032315;28;20436;-43
2023/04/17 09:09:58;;;;;;;20.57;14.90;;;;;;;;;;5032131;28;20864;-43
2023/04/17 09:12:25;;;;;;;20.50;15.83;;;;;;;;;;5019898;28;20458;-44
2023/04/17 09:14:51;;;;;;;20.43;15.40;;;;;;;;;;5034462;28;20523;-43
2023/04/17 09:17:18;;;;;;;19.80;14.33;;;;;;;;;;5034453;28;20811;-43
2023/04/17 09:20:06;;;;;;;16.10;14.40;;;;;;;;;;5031984;28;20816;-43
2023/04/17 09:22:32;;;;;;;16.77;13.50;;;;;;;;;;5027259;28;20739;-43
2023/04/17 09:24:58;;;;;;;17.20;13.23;;;;;;;;;;5031801;28;20414;-44
2023/04/17 09:27:25;;;;;;;15.57;13.00;;;;;;;;;;5018304;28;20414;-44
2023/04/17 09:29:55;;;;;;;18.53;13.40;;;;;;;;;;5014560;28;20914;-45
2023/04/17 09:32:21;;;;;;;15.47;12.90;;;;;;;;;;5015003;28;20442;-46
2023/04/17 09:34:49;;;;;;;19.17;13.27;;;;;;;;;;5022549;28;20411;-44
2023/04/17 09:37:15;;;;;;;14.97;12.60;;;;;;;;;;5034309;28;20507;-44
2023/04/17 09:39:55;;;;;;;17.10;13.33;;;;;;;;;;5032563;28;20933;-44
2023/04/17 09:42:21;;;;;;;16.03;12.83;;;;;;;;;;5051679;28;20479;-45
2023/04/17 09:44:47;;;;;;;13.60;11.50;;;;;;;;;;5014719;28;20424;-43
2023/04/17 09:47:14;;;;;;;15.30;11.17;;;;;;;;;;5014738;28;20789;-44
2023/04/17 09:49:48;;;;;;;13.40;11.80;;;;;;;;;;5021057;28;20516;-45
2023/04/17 09:52:14;;;;;;;16.37;12.27;;;;;;;;;;5040132;28;20829;-43
2023/04/17 09:54:41;;;;;;;15.20;11.90;;;;;;;;;;5036541;28;20421;-43
2023/04/17 09:57:08;;;;;;;14.83;11.37;;;;;;;;;;5035274;28;20428;-44
2023/04/17 09:59:35;;;;;;;14.07;12.07;;;;;;;;;;5032562;28;20427;-46
2023/04/17 10:02:02;;;;;;;12.83;10.57;;;;;;;;;;5032479;28;20505;-46
2023/04/17 10:04:28;;;;;;;15.57;9.77;;;;;;;;;;5033608;28;20398;-46
2023/04/17 10:06:58;;;;;;;13.83;9.97;;;;;;;;;;5033112;28;20448;-45
2023/04/17 10:09:24;;;;;;;11.23;10.07;;;;;;;;;;5033945;28;20828;-46
2023/04/17 10:11:50;;;;;;;17.53;10.83;;;;;;;;;;5036029;28;20472;-45
2023/04/17 10:14:24;;;;;;;12.20;10.90;;;;;;;;;;5026036;28;20424;-46
2023/04/17 10:16:50;;;;;;;17.80;10.53;;;;;;;;;;5033257;28;20382;-46
2023/04/17 10:19:37;;;;;;;11.97;9.67;;;;;;;;;;5033008;28;20391;-46
2023/04/17 10:22:18;;;;;;;12.23;9.63;;;;;;;;;;5032068;28;20462;-46
2023/04/17 10:24:46;;;;;;;12.70;9.47;;;;;;;;;;5032823;28;20387;-47
2023/04/17 10:27:27;;;;;;;11.50;10.13;;;;;;;;;;5032979;28;20421;-48
2023/04/17 10:29:57;;;;;;;14.63;9.50;;;;;;;;;;5033021;28;20924;-48
2023/04/17 10:32:29;;;;;;;11.37;9.33;;;;;;;;;;5033751;28;20429;-47
2023/04/17 10:35:00;;;;;;;11.50;10.00;;;;;;;;;;5033797;28;20758;-45
2023/04/17 10:37:45;;;;;;;10.83;9.03;;;;;;;;;;5032989;28;20980;-46
2023/04/17 10:40:11;;;;;;;13.57;9.80;;;;;;;;;;5032563;28;20405;-45
2023/04/17 10:42:37;;;;;;;10.00;8.97;;;;;;;;;;5032177;28;20445;-46
2023/04/17 10:45:04;;;;;;;11.37;8.60;;;;;;;;;;5034048;28;20806;-46
2023/04/17 10:47:34;;;;;;;13.00;9.37;;;;;;;;;;5032891;28;20410;-45
2023/04/17 10:50:04;;;;;;;12.03;8.30;;;;;;;;;;5032720;28;20409;-47
2023/04/17 10:52:40;;;;;;;12.73;9.47;;;;;;;;;;5031927;28;20430;-46
2023/04/17 10:55:06;;;;;;;11.53;8.37;;;;;;;;;;5032525;28;20444;-45
2023/04/17 10:57:59;;;;;;;11.70;9.00;;;;;;;;;;5026262;28;20954;-46
2023/04/17 11:00:28;;;;;;;9.27;8.10;;;;;;;;;;5024528;28;20703;-46
2023/04/17 11:02:55;;;;;;;11.30;8.80;;;;;;;;;;5029112;28;20513;-45
2023/04/17 11:05:22;;;;;;;9.60;8.60;;;;;;;;;;5030333;28;20925;-47
2023/04/17 11:07:52;;;;;;;9.70;8.40;;;;;;;;;;5013181;28;20464;-45
2023/04/17 11:10:22;;;;;;;10.30;8.43;;;;;;;;;;5028208;28;20931;-44
2023/04/17 11:12:48;;;;;;;10.63;9.43;;;;;;;;;;5035967;28;20437;-43
2023/04/17 11:15:15;;;;;;;10.77;8.17;;;;;;;;;;5033607;28;20407;-44
2023/04/17 11:17:47;;;;;;;10.40;8.47;;;;;;;;;;5031941;28;20970;-44
2023/04/17 11:20:17;;;;;;;9.23;8.30;;;;;;;;;;5031175;28;20423;-44
2023/04/17 11:22:44;;;;;;;9.67;8.70;;;;;;;;;;5026558;28;20491;-43
2023/04/17 11:25:18;;;;;;;9.00;8.10;;;;;;;;;;5032178;28;20555;-44
2023/04/17 11:27:44;;;;;;;9.33;8.20;;;;;;;;;;5032129;28;20495;-43
2023/04/17 11:30:10;;;;;;;9.10;8.07;;;;;;;;;;5031917;28;20453;-43
2023/04/17 11:32:36;;;;;;;9.40;8.10;;;;;;;;;;5031333;28;20457;-44
2023/04/17 11:35:04;;;;;;;9.00;8.10;;;;;;;;;;5031769;28;20900;-44
2023/04/17 11:37:30;;;;;;;9.37;8.20;;;;;;;;;;5032038;28;20453;-43
2023/04/17 11:40:09;;;;;;;9.17;7.30;;;;;;;;;;5031951;28;20414;-43
2023/04/17 11:42:34;;;;;;;8.80;7.90;;;;;;;;;;5039385;28;20447;-44
2023/04/17 11:45:06;;;;;;;8.90;7.70;;;;;;;;;;5031331;28;20775;-46
2023/04/17 11:47:32;;;;;;;8.27;7.50;;;;;;;;;;5032551;28;20410;-47
2023/04/17 11:49:58;;;;;;;9.83;8.83;;;;;;;;;;5031287;28;20417;-46
2023/04/17 11:52:24;;;;;;;8.83;7.93;;;;;;;;;;5030699;28;20933;-45
2023/04/17 11:54:56;;;;;;;9.40;8.17;;;;;;;;;;5030667;28;20410;-46
2023/04/17 11:57:22;;;;;;;9.77;8.77;;;;;;;;;;5023325;28;20820;-47
2023/04/17 11:59:48;;;;;;;9.50;8.53;;;;;;;;;;5031856;28;20395;-46
2023/04/17 12:02:15;;;;;;;11.83;8.80;;;;;;;;;;5030957;28;20917;-45
2023/04/17 12:04:41;;;;;;;9.33;8.37;;;;;;;;;;5031663;28;20952;-45
2023/04/17 12:07:07;;;;;;;8.30;7.50;;;;;;;;;;5032041;28;20414;-46
2023/04/17 12:09:34;;;;;;;14.53;8.73;;;;;;;;;;5024210;28;20411;-45
2023/04/17 12:12:02;;;;;;;9.90;8.57;;;;;;;;;;5030690;28;20446;-47
2023/04/17 12:14:28;;;;;;;9.57;8.57;;;;;;;;;;5028706;28;20447;-47
2023/04/17 12:16:54;;;;;;;10.33;8.90;;;;;;;;;;5031529;28;20414;-45
2023/04/17 12:19:20;;;;;;;10.07;8.40;;;;;;;;;;5031672;28;20413;-47
2023/04/17 12:21:46;;;;;;;9.47;8.47;;;;;;;;;;5030836;28;20771;-46
2023/04/17 12:24:12;;;;;;;9.27;8.37;;;;;;;;;;5031790;28;20410;-46
2023/04/17 12:26:51;;;;;;;10.80;8.47;;;;;;;;;;5030049;28;20406;-46
2023/04/17 12:29:17;;;;;;;11.63;8.77;;;;;;;;;;5031352;28;20418;-47
2023/04/17 12:31:44;;;;;;;9.50;8.53;;;;;;;;;;5030712;28;20765;-46
2023/04/17 12:34:10;;;;;;;16.80;9.40;;;;;;;;;;5031403;28;20457;-46
2023/04/17 12:36:36;;;;;;;8.63;7.73;;;;;;;;;;5031438;28;20435;-46
2023/04/17 12:39:02;;;;;;;9.83;8.63;;;;;;;;;;5029740;28;20449;-46
2023/04/17 12:41:29;;;;;;;11.33;9.10;;;;;;;;;;5031164;28;20428;-46
2023/04/17 12:43:58;;;;;;;9.90;8.87;;;;;;;;;;5028617;28;20437;-45
2023/04/17 12:46:24;;;;;;;10.27;8.57;;;;;;;;;;5029342;28;20418;-46
2023/04/17 12:48:57;;;;;;;11.67;9.57;;;;;;;;;;5035358;28;20773;-48
2023/04/17 12:51:23;;;;;;;10.50;8.87;;;;;;;;;;5026691;28;20410;-47
2023/04/17 12:53:51;;;;;;;11.27;8.90;;;;;;;;;;5033896;28;20517;-47
2023/04/17 12:56:17;;;;;;;13.33;10.30;;;;;;;;;;5039444;28;20418;-46
2023/04/17 12:58:43;;;;;;;13.00;10.40;;;;;;;;;;5032089;28;20466;-46
2023/04/17 13:01:09;;;;;;;11.37;9.13;;;;;;;;;;5033542;28;20410;-45
2023/04/17 13:03:35;;;;;;;9.20;8.30;;;;;;;;;;5034203;28;20425;-46
2023/04/17 13:06:01;;;;;;;10.77;8.10;;;;;;;;;;5034659;28;20406;-48
2023/04/17 13:08:27;;;;;;;8.73;7.50;;;;;;;;;;5033606;28;20414;-46
2023/04/17 13:10:55;;;;;;;9.87;8.80;;;;;;;;;;5037811;28;20571;-47
2023/04/17 13:13:20;;;;;;;11.73;8.80;;;;;;;;;;5029497;28;20452;-47
2023/04/17 13:15:47;;;;;;;9.23;8.30;;;;;;;;;;5034664;28;20925;-46
2023/04/17 13:18:13;;;;;;;11.60;9.10;;;;;;;;;;5034570;28;20979;-46
2023/04/17 13:20:39;;;;;;;12.60;9.50;;;;;;;;;;5034476;28;20493;-46
2023/04/17 13:23:05;;;;;;;14.73;9.57;;;;;;;;;;5032531;28;20438;-46
2023/04/17 13:25:31;;;;;;;9.67;8.67;;;;;;;;;;5034598;28;20784;-46
2023/04/17 13:27:57;;;;;;;9.07;7.90;;;;;;;;;;5033086;28;20421;-46
2023/04/17 13:30:25;;;;;;;9.87;8.87;;;;;;;;;;5034530;28;20752;-46
2023/04/17 13:32:51;;;;;;;13.70;8.73;;;;;;;;;;5033596;28;20509;-46
2023/04/17 13:35:17;;;;;;;9.80;8.80;;;;;;;;;;5033011;28;20982;-47
2023/04/17 13:37:43;;;;;;;11.40;8.67;;;;;;;;;;5034526;28;20822;-45
2023/04/17 13:40:09;;;;;;;10.90;8.90;;;;;;;;;;5034300;28;20409;-46
2023/04/17 13:42:36;;;;;;;10.83;9.73;;;;;;;;;;5040232;28;20866;-46
2023/04/17 13:45:02;;;;;;;10.63;8.83;;;;;;;;;;5034796;28;20436;-46
2023/04/17 13:47:28;;;;;;;8.87;8.07;;;;;;;;;;5041466;28;20406;-47
2023/04/17 13:49:54;;;;;;;10.70;8.87;;;;;;;;;;5032768;28;20417;-45
2023/04/17 13:52:20;;;;;;;10.40;8.53;;;;;;;;;;5033650;28;20819;-46
2023/04/17 13:54:46;;;;;;;13.60;8.87;;;;;;;;;;5034071;28;20406;-46
2023/04/17 13:57:13;;;;;;;12.90;9.00;;;;;;;;;;5033651;28;20771;-46
2023/04/17 13:59:39;;;;;;;10.80;8.80;;;;;;;;;;5028446;28;20968;-46
2023/04/17 14:02:05;;;;;;;13.53;9.37;;;;;;;;;;5032875;28;20434;-46
2023/04/17 14:04:31;;;;;;;12.00;8.80;;;;;;;;;;5032615;28;20513;-45
2023/04/17 14:06:57;;;;;;;16.70;10.00;;;;;;;;;;5034097;28;20847;-47
2023/04/17 14:09:23;;;;;;;9.93;8.93;;;;;;;;;;5033942;28;20501;-46
2023/04/17 14:11:49;;;;;;;12.73;9.27;;;;;;;;;;5032983;28;20408;-45
2023/04/17 14:14:16;;;;;;;13.93;9.07;;;;;;;;;;5033567;28;20861;-45
2023/04/17 14:16:42;;;;;;;8.60;7.67;;;;;;;;;;5036622;28;20418;-46
2023/04/17 14:19:08;;;;;;;11.90;9.30;;;;;;;;;;5037857;28;20446;-46
2023/04/17 14:21:34;;;;;;;8.97;8.07;;;;;;;;;;5032682;28;20811;-46